createdAt,value
2022-08-05T07:37:22.532Z,8.57
2022-08-05T07:52:27.316Z,5.03
2022-08-05T08:07:39.638Z,4.97
2022-08-05T08:23:00.177Z,4.27
2022-08-05T08:38:07.989Z,5.27
2022-08-05T08:53:17.219Z,5.00
2022-08-05T09:08:26.698Z,7.23
2022-08-05T09:23:43.437Z,3.60
2022-08-05T09:39:02.605Z,4.60
2022-08-05T09:54:08.606Z,21.37
2022-08-05T10:09:27.799Z,58.60
2022-08-05T10:24:34.759Z,44.27
2022-08-05T10:39:59.180Z,9.83
2022-08-05T10:55:16.087Z,7.17
2022-08-05T11:10:29.214Z,6.00
2022-08-05T11:26:05.697Z,3.67
2022-08-05T11:41:35.021Z,3.93
2022-08-05T11:56:43.346Z,3.67
2022-08-05T12:11:55.249Z,2.60
2022-08-05T12:26:59.879Z,3.47
2022-08-05T12:42:18.663Z,4.00
2022-08-05T12:57:24.470Z,3.30
2022-08-05T13:12:29.303Z,3.47
2022-08-05T13:27:38.438Z,4.87
2022-08-05T13:42:43.883Z,2.90
2022-08-05T13:57:51.646Z,4.03
2022-08-05T14:12:57.193Z,3.70
2022-08-05T14:28:02.042Z,2.90
2022-08-05T14:43:07.606Z,6.33
2022-08-05T14:58:15.671Z,3.90
2022-08-05T15:13:20.328Z,2.90
2022-08-05T15:28:33.038Z,3.53
2022-08-05T15:43:45.464Z,4.87
2022-08-05T15:58:51.588Z,4.63
2022-08-05T16:13:56.225Z,4.03
2022-08-05T16:29:00.897Z,2.97
2022-08-05T16:44:05.856Z,3.67
2022-08-05T16:59:11.847Z,3.20
2022-08-05T17:14:34.108Z,4.50
2022-08-05T17:29:41.261Z,4.53
2022-08-05T17:44:50.135Z,5.18
2022-08-05T18:00:05.561Z,4.57
2022-08-05T18:15:11.871Z,5.03
2022-08-05T18:30:16.624Z,6.73
2022-08-05T18:45:21.324Z,5.57
2022-08-05T19:00:29.359Z,6.37
2022-08-05T19:15:58.295Z,8.20
2022-08-05T19:31:00.854Z,7.03
2022-08-05T19:46:06.078Z,6.57
